KLAF/LAF METAR and TAF weather

Enter ICAO airport designator
Station Type Date Time Source
KLAF METAR 2022/12/05 14:54 UTC NOAA

KLAF 051454Z 20004KT 10SM SCT041 M01/M04 A2998 RMK AO2 SLP157 T10061044 56001


Station Type Date Time Source
KLAF Decoded METAR 2022/12/05 14:54 UTC NOAA

LAFAYETTE PURDUE UNIV AIRPORT , IN, United States (KLAF) 40-25N 86-57W 182M
Dec 05, 2022 - 09:54 AM EST / 2022.12.05 1454 UTC
Wind: from the SSW (200 degrees) at 5 MPH (4 KT):0
Visibility: 10 mile(s):0
Sky conditions: partly cloudy
Temperature: 30.9 F (-0.6 C)
Windchill: 26 F (-3 C):1
Dew Point: 24.1 F (-4.4 C)
Relative Humidity: 75%
Pressure (altimeter): 29.98 in. Hg (1015 hPa)
Pressure tendency: 0.00 inches (0.1 hPa) lower than three hours ago
ob: KLAF 051454Z 20004KT 10SM SCT041 M01/M04 A2998 RMK AO2 SLP157 T10061044 56001
cycle: 15

Station Type Date Time Source
KLAF TAF 2022/12/05 12:36 UTC NOAA

TAF KLAF 051135Z 0512/0612 19003KT P6SM FEW250
FM051800 19007KT P6SM OVC035
FM052200 18007KT P6SM VCSH OVC025
FM060800 VRB02KT 6SM BR VCSH OVC010
AMD LTD TO CLD VIS AND WIND TIL 051400

Example: see airport list